Berlin, New Hampshire
Current Conditions -  °F | °C
As of 6:52 AM on Sunday 23 Nov 2014 (Local Time) from KBML Reporting Station
Overcast Overcast  
Wind Chill: 37°   Ceiling: 2000
Heat Index: 37°   Visibility: 9mi
Dew Point: 35°   Wind: 0mph
Humidity: 93%   Direction: NA
Pressure: 29.98"   Gusts: NA
Location:  44.47°N, 71.18°W
Report Text: KBML 231152Z AUTO 00000KT 9SM BKN020 OVC060 03/02 A2998 RMK AO2 RAE37 SLP166 P0000 60001 70001 T00280017 10033 20011 53016
Loading
Personal Weather Stations






























Interactive Weather Map New forecast layout! Learn more

10-Day Weather Forecast

Advertisements
Track Severe Weather on mobile